Observation data for Pampa on 06/15/2019      Previous  Date  Next       Current Mesonet Observations  Soil Data  Daily Summary Page  Observations in Plain Language
KPMS 150500Z 18016G21KT 25/16 A2976 RMK A01 T02490159  RH  060%=      5-min Rain = 0
KPMS 150505Z 18016G22KT 25/16 A2975 RMK A01 T02510156  RH  058%=      5-min Rain = 0
KPMS 150510Z 18017G24KT 25/15 A2974 RMK A01 T02540152  RH  056%=      5-min Rain = 0
KPMS 150515Z 18019G29KT 26/15 A2975 RMK A01 T02600150  RH  053%=      5-min Rain = 0
KPMS 150520Z 19020G28KT 26/15 A2975 RMK A01 T02610150  RH  053%=      5-min Rain = 0
KPMS 150525Z 19020G27KT 26/15 A2975 RMK A01 T02580153  RH  054%=      5-min Rain = 0
KPMS 150530Z 19022G29KT 26/15 A2975 RMK A01 T02600152  RH  053%=      5-min Rain = 0
KPMS 150535Z 19021G29KT 26/15 A2975 RMK A01 T02610152  RH  054%=      5-min Rain = 0
KPMS 150540Z 19019G25KT 26/15 A2975 RMK A01 T02590152  RH  054%=      5-min Rain = 0
KPMS 150545Z 19017G25KT 26/15 A2975 RMK A01 T02560152  RH  055%=      5-min Rain = 0
KPMS 150550Z 19016KT 25/15 A2975 RMK A01 T02540153  RH  056%=      5-min Rain = 0
KPMS 150555Z 19016G21KT 25/15 A2975 RMK A01 T02520153  RH  057%=      5-min Rain = 0
KPMS 150600Z 19017G22KT 25/15 A2975 RMK A01 T02520153  RH  057%=      5-min Rain = 0
KPMS 150605Z 19017G22KT 25/15 A2975 RMK A01 T02500153  RH  057%=      5-min Rain = 0
KPMS 150610Z 19018G23KT 25/15 A2975 RMK A01 T02500154  RH  058%=      5-min Rain = 0
KPMS 150615Z 19017G22KT 25/16 A2976 RMK A01 T02490155  RH  059%=      5-min Rain = 0
KPMS 150620Z 19017KT 25/16 A2976 RMK A01 T02470156  RH  060%=      5-min Rain = 0
KPMS 150625Z 19016KT 25/16 A2975 RMK A01 T02470157  RH  060%=      5-min Rain = 0
KPMS 150630Z 19016G23KT 25/16 A2975 RMK A01 T02460158  RH  061%=      5-min Rain = 0
KPMS 150635Z 19017G23KT 25/16 A2975 RMK A01 T02460159  RH  061%=      5-min Rain = 0
KPMS 150640Z 19017G22KT 25/16 A2975 RMK A01 T02450160  RH  062%=      5-min Rain = 0
KPMS 150645Z 20017G22KT 24/16 A2975 RMK A01 T02440161  RH  063%=      5-min Rain = 0
KPMS 150650Z 19016G21KT 24/16 A2975 RMK A01 T02430162  RH  063%=      5-min Rain = 0
KPMS 150655Z 20016G21KT 24/16 A2975 RMK A01 T02430162  RH  064%=      5-min Rain = 0
KPMS 150700Z 20015G21KT 24/16 A2975 RMK A01 T02410163  RH  065%=      5-min Rain = 0
KPMS 150705Z 20013G18KT 24/16 A2975 RMK A01 T02390163  RH  066%=      5-min Rain = 0
KPMS 150710Z 20015KT 24/16 A2975 RMK A01 T02370164  RH  067%=      5-min Rain = 0
KPMS 150715Z 19013G19KT 24/16 A2975 RMK A01 T02350164  RH  067%=      5-min Rain = 0
KPMS 150720Z 19014G19KT 23/17 A2975 RMK A01 T02330165  RH  069%=      5-min Rain = 0
KPMS 150725Z 19014KT 23/17 A2975 RMK A01 T02320165  RH  069%=      5-min Rain = 0
KPMS 150730Z 19013KT 23/17 A2975 RMK A01 T02310165  RH  070%=      5-min Rain = 0
KPMS 150735Z 18013KT 23/17 A2975 RMK A01 T02280165  RH  071%=      5-min Rain = 0
KPMS 150740Z 19013G18KT 23/17 A2975 RMK A01 T02270165  RH  072%=      5-min Rain = 0
KPMS 150745Z 19015G20KT 23/17 A2975 RMK A01 T02270166  RH  072%=      5-min Rain = 0
KPMS 150750Z 19015G20KT 23/17 A2975 RMK A01 T02270166  RH  072%=      5-min Rain = 0
KPMS 150755Z 19014G19KT 23/17 A2975 RMK A01 T02270167  RH  072%=      5-min Rain = 0
KPMS 150800Z 19015G21KT 23/17 A2975 RMK A01 T02270167  RH  072%=      5-min Rain = 0
KPMS 150805Z 19013G19KT 23/17 A2975 RMK A01 T02270167  RH  073%=      5-min Rain = 0
KPMS 150810Z 19013KT 23/17 A2975 RMK A01 T02250168  RH  073%=      5-min Rain = 0
KPMS 150815Z 19014G21KT 23/17 A2975 RMK A01 T02250168  RH  074%=      5-min Rain = 0
KPMS 150820Z 19014G19KT 22/17 A2975 RMK A01 T02240168  RH  074%=      5-min Rain = 0
KPMS 150825Z 19012KT 22/17 A2975 RMK A01 T02220168  RH  075%=      5-min Rain = 0
KPMS 150830Z 20012KT 22/17 A2976 RMK A01 T02220168  RH  075%=      5-min Rain = 0
KPMS 150835Z 19012KT 22/17 A2976 RMK A01 T02210168  RH  076%=      5-min Rain = 0
KPMS 150840Z 19012KT 22/17 A2976 RMK A01 T02180168  RH  077%=      5-min Rain = 0
KPMS 150845Z 20011KT 22/17 A2976 RMK A01 T02170168  RH  077%=      5-min Rain = 0
KPMS 150850Z 20010G15KT 22/17 A2976 RMK A01 T02150168  RH  078%=      5-min Rain = 0
KPMS 150855Z 20011KT 22/17 A2976 RMK A01 T02150168  RH  078%=      5-min Rain = 0
KPMS 150900Z 20012G17KT 21/17 A2976 RMK A01 T02130167  RH  079%=      5-min Rain = 0
KPMS 150905Z 20015G20KT 22/17 A2975 RMK A01 T02170167  RH  077%=      5-min Rain = 0
KPMS 150910Z 20014G19KT 22/17 A2975 RMK A01 T02180167  RH  076%=      5-min Rain = 0
KPMS 150915Z 20016KT 22/17 A2975 RMK A01 T02190167  RH  076%=      5-min Rain = 0
KPMS 150920Z 20015G20KT 22/17 A2975 RMK A01 T02200167  RH  076%=      5-min Rain = 0
KPMS 150925Z 20016G23KT 22/17 A2974 RMK A01 T02210168  RH  075%=      5-min Rain = 0
KPMS 150930Z 20015G20KT 22/17 A2975 RMK A01 T02200168  RH  076%=      5-min Rain = 0
KPMS 150935Z 20016G22KT 22/17 A2974 RMK A01 T02200168  RH  076%=      5-min Rain = 0
KPMS 150940Z 20017G23KT 22/17 A2974 RMK A01 T02210168  RH  076%=      5-min Rain = 0
KPMS 150945Z 20017G25KT 22/17 A2974 RMK A01 T02220168  RH  075%=      5-min Rain = 0
KPMS 150950Z 21017G23KT 22/17 A2974 RMK A01 T02200168  RH  076%=      5-min Rain = 0
KPMS 150955Z 21016G24KT 22/17 A2974 RMK A01 T02210168  RH  076%=      5-min Rain = 0
KPMS 151000Z 21016G24KT 22/17 A2974 RMK A01 T02200169  RH  076%=      5-min Rain = 0
KPMS 151005Z 21016G21KT 22/17 A2974 RMK A01 T02200169  RH  076%=      5-min Rain = 0
KPMS 151010Z 21015G22KT 22/17 A2974 RMK A01 T02190169  RH  077%=      5-min Rain = 0
KPMS 151015Z 21015G22KT 22/17 A2975 RMK A01 T02180169  RH  078%=      5-min Rain = 0
KPMS 151020Z 21015G22KT 22/17 A2975 RMK A01 T02180169  RH  077%=      5-min Rain = 0
KPMS 151025Z 21016G21KT 22/17 A2975 RMK A01 T02170168  RH  077%=      5-min Rain = 0
KPMS 151030Z 22014G20KT 22/17 A2975 RMK A01 T02170168  RH  077%=      5-min Rain = 0
KPMS 151035Z 23013G19KT 22/17 A2975 RMK A01 T02170167  RH  077%=      5-min Rain = 0
KPMS 151040Z 23010G16KT 22/17 A2976 RMK A01 T02160167  RH  077%=      5-min Rain = 0
KPMS 151045Z 23013G19KT 22/17 A2976 RMK A01 T02150166  RH  077%=      5-min Rain = 0
KPMS 151050Z 25013G18KT 22/17 A2977 RMK A01 T02150165  RH  077%=      5-min Rain = 0
KPMS 151055Z 24013KT 22/17 A2977 RMK A01 T02160165  RH  077%=      5-min Rain = 0
KPMS 151100Z 25012G20KT 22/17 A2977 RMK A01 T02150165  RH  077%=      5-min Rain = 0
KPMS 151105Z 26009G15KT 21/17 A2978 RMK A01 T02100165  RH  080%=      5-min Rain = 0
KPMS 151110Z 26010KT 21/16 A2978 RMK A01 T02060164  RH  080%=      5-min Rain = 0
KPMS 151115Z 25011KT 21/16 A2977 RMK A01 T02050160  RH  079%=      5-min Rain = 0
KPMS 151120Z 24009KT 20/16 A2977 RMK A01 T02030155  RH  077%=      5-min Rain = 0
KPMS 151125Z 25008G14KT 20/15 A2978 RMK A01 T02040151  RH  074%=      5-min Rain = 0
KPMS 151130Z 26006KT 20/15 A2979 RMK A01 T02040145  RH  072%=      5-min Rain = 0
KPMS 151135Z 27005KT 21/13 A2979 RMK A01 T02050134  RH  066%=      5-min Rain = 0
KPMS 151140Z 29004KT 20/12 A298 RMK A01 T02040123  RH  062%=      5-min Rain = 0
KPMS 151145Z 27003KT 20/12 A298 RMK A01 T02010120  RH  062%=      5-min Rain = 0
KPMS 151150Z 27003KT 20/12 A298 RMK A01 T01970121  RH  064%=      5-min Rain = 0
KPMS 151155Z 28003KT 19/12 A2979 RMK A01 T01940121  RH  065%=      5-min Rain = 0
KPMS 151200Z 25003KT 19/12 A298 RMK A01 T01900123  RH  067%=      5-min Rain = 0
KPMS 151205Z 23004KT 19/12 A298 RMK A01 T01880122  RH  068%=      5-min Rain = 0
KPMS 151210Z 20006KT 19/12 A2979 RMK A01 T01850123  RH  070%=      5-min Rain = 0
KPMS 151215Z 21006KT 19/12 A2979 RMK A01 T01860121  RH  068%=      5-min Rain = 0
KPMS 151220Z 19007KT 19/12 A2979 RMK A01 T01870121  RH  068%=      5-min Rain = 0
KPMS 151225Z 18006KT 19/13 A2979 RMK A01 T01870125  RH  070%=      5-min Rain = 0
KPMS 151230Z 18005KT 19/12 A2979 RMK A01 T01880123  RH  068%=      5-min Rain = 0
KPMS 151235Z 15007KT 19/13 A2979 RMK A01 T01900127  RH  069%=      5-min Rain = 0
KPMS 151240Z 15006KT 19/13 A298 RMK A01 T01900132  RH  072%=      5-min Rain = 0
KPMS 151245Z 17006KT 19/13 A298 RMK A01 T01900134  RH  073%=      5-min Rain = 0
KPMS 151250Z 18006KT 19/13 A2979 RMK A01 T01930133  RH  071%=      5-min Rain = 0
KPMS 151255Z 21004KT 20/14 A2979 RMK A01 T01960138  RH  072%=      5-min Rain = 0
KPMS 151300Z 20001KT 20/14 A298 RMK A01 T02010141  RH  071%=      5-min Rain = 0
KPMS 151305Z 16003KT 21/14 A298 RMK A01 T02050142  RH  070%=      5-min Rain = 0
KPMS 151310Z 19003KT 21/14 A298 RMK A01 T02080143  RH  069%=      5-min Rain = 0
KPMS 151315Z 24005KT 21/14 A2979 RMK A01 T02100137  RH  066%=      5-min Rain = 0
KPMS 151320Z 27006KT 21/13 A2979 RMK A01 T02100130  RH  063%=      5-min Rain = 0
KPMS 151325Z 28007G12KT 21/12 A2979 RMK A01 T02080124  RH  061%=      5-min Rain = 0
KPMS 151330Z 27007KT 20/12 A2979 RMK A01 T02040122  RH  061%=      5-min Rain = 0
KPMS 151335Z 28006KT 20/13 A298 RMK A01 T02040125  RH  063%=      5-min Rain = 0
KPMS 151340Z 27007KT 20/13 A298 RMK A01 T02030133  RH  066%=      5-min Rain = 0
KPMS 151345Z 28008KT 20/14 A298 RMK A01 T02000140  RH  071%=      5-min Rain = 0
KPMS 151350Z 28007KT 20/14 A298 RMK A01 T01970143  RH  074%=      5-min Rain = 0
KPMS 151355Z 30009KT 20/14 A2981 RMK A01 T01960144  RH  075%=      5-min Rain = 0
KPMS 151400Z 29008KT 20/15 A2981 RMK A01 T01950146  RH  076%=      5-min Rain = 0
KPMS 151405Z 30007KT 20/15 A2982 RMK A01 T01960148  RH  077%=      5-min Rain = 0
KPMS 151410Z 30006KT 20/15 A2982 RMK A01 T01960149  RH  078%=      5-min Rain = 0
KPMS 151415Z 31006KT 20/15 A2982 RMK A01 T01980151  RH  077%=      5-min Rain = 0
KPMS 151420Z 30004KT 20/15 A2982 RMK A01 T01990150  RH  077%=      5-min Rain = 0
KPMS 151425Z 31006KT 20/15 A2983 RMK A01 T01990150  RH  077%=      5-min Rain = 0
KPMS 151430Z 29005KT 20/15 A2983 RMK A01 T02010151  RH  076%=      5-min Rain = 0
KPMS 151435Z 30005KT 21/15 A2983 RMK A01 T02050152  RH  075%=      5-min Rain = 0
KPMS 151440Z 31007KT 21/15 A2983 RMK A01 T02080152  RH  074%=      5-min Rain = 0
KPMS 151445Z 32008KT 21/15 A2983 RMK A01 T02110152  RH  072%=      5-min Rain = 0
KPMS 151450Z 33007KT 21/15 A2983 RMK A01 T02120152  RH  072%=      5-min Rain = 0
KPMS 151455Z 33008KT 21/15 A2983 RMK A01 T02140153  RH  071%=      5-min Rain = 0
KPMS 151500Z 32007KT 21/15 A2983 RMK A01 T02130153  RH  072%=      5-min Rain = 0
KPMS 151505Z 31007KT 22/16 A2983 RMK A01 T02150155  RH  072%=      5-min Rain = 0
KPMS 151510Z 34007KT 22/16 A2983 RMK A01 T02180155  RH  070%=      5-min Rain = 0
KPMS 151515Z 32008G13KT 22/15 A2983 RMK A01 T02200152  RH  068%=      5-min Rain = 0
KPMS 151520Z 34010KT 22/15 A2984 RMK A01 T02240153  RH  067%=      5-min Rain = 0
KPMS 151525Z 34008KT 22/15 A2984 RMK A01 T02240152  RH  066%=      5-min Rain = 0
KPMS 151530Z 35008G14KT 23/16 A2984 RMK A01 T02290155  RH  066%=      5-min Rain = 0
KPMS 151535Z 34009KT 23/15 A2984 RMK A01 T02310151  RH  064%=      5-min Rain = 0
KPMS 151540Z 33009KT 23/15 A2984 RMK A01 T02300152  RH  064%=      5-min Rain = 0
KPMS 151545Z 35008KT 24/15 A2984 RMK A01 T02350154  RH  063%=      5-min Rain = 0
KPMS 151550Z 34009KT 24/15 A2984 RMK A01 T02370152  RH  062%=      5-min Rain = 0
KPMS 151555Z 00007G12KT 24/15 A2984 RMK A01 T02370151  RH  061%=      5-min Rain = 0
KPMS 151600Z 00007KT 24/15 A2984 RMK A01 T02410152  RH  060%=      5-min Rain = 0
KPMS 151605Z 01009KT 24/15 A2984 RMK A01 T02430152  RH  060%=      5-min Rain = 0
KPMS 151610Z 35009KT 24/15 A2984 RMK A01 T02420152  RH  060%=      5-min Rain = 0
KPMS 151615Z 35009KT 24/15 A2984 RMK A01 T02430152  RH  059%=      5-min Rain = 0
KPMS 151620Z 36010KT 25/15 A2984 RMK A01 T02490154  RH  058%=      5-min Rain = 0
KPMS 151625Z 00010KT 25/15 A2984 RMK A01 T02500152  RH  057%=      5-min Rain = 0
KPMS 151630Z 01009KT 26/16 A2984 RMK A01 T02550155  RH  056%=      5-min Rain = 0
KPMS 151635Z 02010KT 26/15 A2985 RMK A01 T02570154  RH  055%=      5-min Rain = 0
KPMS 151640Z 02009G14KT 26/16 A2984 RMK A01 T02590156  RH  056%=      5-min Rain = 0
KPMS 151645Z 01011KT 26/15 A2984 RMK A01 T02610148  RH  052%=      5-min Rain = 0
KPMS 151650Z 02010KT 26/15 A2985 RMK A01 T02620147  RH  051%=      5-min Rain = 0
KPMS 151655Z 01010KT 26/15 A2985 RMK A01 T02630150  RH  052%=      5-min Rain = 0
KPMS 151700Z 36010KT 26/15 A2985 RMK A01 T02630151  RH  052%=      5-min Rain = 0
KPMS 151705Z 00010KT 26/15 A2985 RMK A01 T02640150  RH  052%=      5-min Rain = 0
KPMS 151710Z 02010G15KT 27/15 A2985 RMK A01 T02660150  RH  051%=      5-min Rain = 0
KPMS 151715Z 02009KT 27/16 A2985 RMK A01 T02700157  RH  052%=      5-min Rain = 0
KPMS 151720Z 02012KT 27/15 A2985 RMK A01 T02690154  RH  052%=      5-min Rain = 0
KPMS 151725Z 03010G15KT 27/16 A2985 RMK A01 T02710156  RH  052%=      5-min Rain = 0
KPMS 151730Z 02009KT 27/16 A2985 RMK A01 T02710157  RH  052%=      5-min Rain = 0
KPMS 151735Z 02011G17KT 27/15 A2986 RMK A01 T02710154  RH  051%=      5-min Rain = 0
KPMS 151740Z 03008G15KT 27/16 A2986 RMK A01 T02710157  RH  052%=      5-min Rain = 0
KPMS 151745Z 03009G14KT 27/16 A2986 RMK A01 T02740156  RH  051%=      5-min Rain = 0
KPMS 151750Z 03007G15KT 27/15 A2986 RMK A01 T02730154  RH  050%=      5-min Rain = 0
KPMS 151755Z 04011G16KT 28/16 A2986 RMK A01 T02750157  RH  051%=      5-min Rain = 0
KPMS 151800Z 03007KT 28/16 A2986 RMK A01 T02760159  RH  051%=      5-min Rain = 0
KPMS 151805Z 03009G15KT 28/16 A2987 RMK A01 T02790161  RH  051%=      5-min Rain = 0
KPMS 151810Z 05008G13KT 28/17 A2987 RMK A01 T02770165  RH  053%=      5-min Rain = 0
KPMS 151815Z 03008G13KT 28/17 A2987 RMK A01 T02780169  RH  054%=      5-min Rain = 0
KPMS 151820Z 03009G16KT 28/18 A2987 RMK A01 T02800175  RH  056%=      5-min Rain = 0
KPMS 151825Z 04009KT 28/18 A2987 RMK A01 T02790175  RH  056%=      5-min Rain = 0
KPMS 151830Z 02010KT 28/18 A2987 RMK A01 T02790175  RH  056%=      5-min Rain = 0
KPMS 151835Z 02008G13KT 28/18 A2987 RMK A01 T02770176  RH  057%=      5-min Rain = 0
KPMS 151840Z 03009KT 28/18 A2986 RMK A01 T02770177  RH  058%=      5-min Rain = 0
KPMS 151845Z 03011G18KT 28/18 A2986 RMK A01 T02810179  RH  057%=      5-min Rain = 0
KPMS 151850Z 02009G15KT 28/18 A2986 RMK A01 T02800178  RH  057%=      5-min Rain = 0
KPMS 151855Z 01008G14KT 28/18 A2986 RMK A01 T02830179  RH  056%=      5-min Rain = 0
KPMS 151900Z 01011G17KT 28/18 A2986 RMK A01 T02830179  RH  056%=      5-min Rain = 0
KPMS 151905Z 02012KT 29/18 A2986 RMK A01 T02860179  RH  055%=      5-min Rain = 0
KPMS 151910Z 01011KT 29/18 A2986 RMK A01 T02860180  RH  056%=      5-min Rain = 0
KPMS 151915Z 00011G17KT 29/18 A2986 RMK A01 T02890180  RH  055%=      5-min Rain = 0
KPMS 151920Z 02015G20KT 29/18 A2986 RMK A01 T02850175  RH  054%=      5-min Rain = 0
KPMS 151925Z 01012G19KT 29/18 A2986 RMK A01 T02870179  RH  055%=      5-min Rain = 0
KPMS 151930Z 02015KT 29/18 A2986 RMK A01 T02860175  RH  054%=      5-min Rain = 0
KPMS 151935Z 02012KT 28/17 A2986 RMK A01 T02820174  RH  055%=      5-min Rain = 0
KPMS 151940Z 02013G20KT 29/18 A2986 RMK A01 T02900178  RH  053%=      5-min Rain = 0
KPMS 151945Z 02014G19KT 29/18 A2985 RMK A01 T02900176  RH  053%=      5-min Rain = 0
KPMS 151950Z 03012KT 29/18 A2985 RMK A01 T02940178  RH  052%=      5-min Rain = 0
KPMS 151955Z 04013KT 29/18 A2985 RMK A01 T02900175  RH  053%=      5-min Rain = 0
KPMS 152000Z 04011G17KT 29/18 A2986 RMK A01 T02850175  RH  054%=      5-min Rain = 0
KPMS 152005Z 02011G16KT 29/18 A2986 RMK A01 T02870175  RH  053%=      5-min Rain = 0
KPMS 152010Z 03010G16KT 29/18 A2986 RMK A01 T02910183  RH  055%=      5-min Rain = 0
KPMS 152015Z 03009KT 30/18 A2987 RMK A01 T02950178  RH  052%=      5-min Rain = 0
KPMS 152020Z 04011KT 29/18 A2987 RMK A01 T02930178  RH  053%=      5-min Rain = 0
KPMS 152025Z 05011KT 29/18 A2987 RMK A01 T02880179  RH  054%=      5-min Rain = 0
KPMS 152030Z 05008G13KT 29/18 A2987 RMK A01 T02880175  RH  053%=      5-min Rain = 0
KPMS 152035Z 04009KT 29/17 A2987 RMK A01 T02850173  RH  053%=      5-min Rain = 0
KPMS 152040Z 02006KT 29/18 A2987 RMK A01 T02900177  RH  053%=      5-min Rain = 0
KPMS 152045Z 04011KT 29/18 A2987 RMK A01 T02940180  RH  053%=      5-min Rain = 0
KPMS 152050Z 03009G15KT 29/18 A2987 RMK A01 T02870177  RH  054%=      5-min Rain = 0
KPMS 152055Z 04010KT 29/18 A2987 RMK A01 T02920183  RH  055%=      5-min Rain = 0
KPMS 152100Z 05009G14KT 29/18 A2987 RMK A01 T02850176  RH  054%=      5-min Rain = 0
KPMS 152105Z 05008G15KT 29/18 A2987 RMK A01 T02870181  RH  055%=      5-min Rain = 0
KPMS 152110Z 05011KT 29/18 A2987 RMK A01 T02910180  RH  054%=      5-min Rain = 0
KPMS 152115Z 05010KT 29/18 A2987 RMK A01 T02860176  RH  054%=      5-min Rain = 0
KPMS 152120Z 04010KT 29/18 A2987 RMK A01 T02900180  RH  054%=      5-min Rain = 0
KPMS 152125Z 06011G18KT 30/18 A2986 RMK A01 T02980182  RH  052%=      5-min Rain = 0
KPMS 152130Z 05013G18KT 28/18 A2986 RMK A01 T02820176  RH  055%=      5-min Rain = 0
KPMS 152135Z 05012G17KT 29/18 A2986 RMK A01 T02900181  RH  055%=      5-min Rain = 0
KPMS 152140Z 05012G17KT 29/18 A2986 RMK A01 T02920179  RH  053%=      5-min Rain = 0
KPMS 152145Z 05011G17KT 29/18 A2986 RMK A01 T02890178  RH  054%=      5-min Rain = 0
KPMS 152150Z 05013KT 29/18 A2986 RMK A01 T02850180  RH  056%=      5-min Rain = 0
KPMS 152155Z 05012G17KT 29/18 A2986 RMK A01 T02900180  RH  054%=      5-min Rain = 0
KPMS 152200Z 05011KT 29/18 A2985 RMK A01 T02900177  RH  053%=      5-min Rain = 0
KPMS 152205Z 05010KT 29/18 A2985 RMK A01 T02880179  RH  054%=      5-min Rain = 0
KPMS 152210Z 04012G18KT 29/18 A2984 RMK A01 T02910182  RH  055%=      5-min Rain = 0
KPMS 152215Z 05013G18KT 29/18 A2983 RMK A01 T02910177  RH  053%=      5-min Rain = 0
KPMS 152220Z 07012G18KT 29/18 A2983 RMK A01 T02910177  RH  053%=      5-min Rain = 0
KPMS 152225Z 05015G20KT 29/18 A2983 RMK A01 T02880178  RH  054%=      5-min Rain = 0
KPMS 152230Z 05011KT 28/18 A2984 RMK A01 T02810176  RH  055%=      5-min Rain = 0
KPMS 152235Z 05012G17KT 29/18 A2984 RMK A01 T02850179  RH  055%=      5-min Rain = 0
KPMS 152240Z 05013KT 28/17 A2984 RMK A01 T02820174  RH  055%=      5-min Rain = 0
KPMS 152245Z 05011KT 28/18 A2984 RMK A01 T02800176  RH  056%=      5-min Rain = 0
KPMS 152250Z 04010KT 28/17 A2985 RMK A01 T02790173  RH  055%=      5-min Rain = 0
KPMS 152255Z 06010KT 28/17 A2985 RMK A01 T02800173  RH  055%=      5-min Rain = 0
KPMS 152300Z 05009KT 28/17 A2985 RMK A01 T02800173  RH  055%=      5-min Rain = 0
KPMS 152305Z 05010KT 28/17 A2985 RMK A01 T02790174  RH  055%=      5-min Rain = 0
KPMS 152310Z 05011KT 28/17 A2985 RMK A01 T02770174  RH  056%=      5-min Rain = 0
KPMS 152315Z 04010KT 28/18 A2985 RMK A01 T02760175  RH  057%=      5-min Rain = 0
KPMS 152320Z 05009KT 28/17 A2985 RMK A01 T02760173  RH  056%=      5-min Rain = 0
KPMS 152325Z 05009KT 28/18 A2985 RMK A01 T02760175  RH  057%=      5-min Rain = 0
KPMS 152330Z 05010KT 28/17 A2984 RMK A01 T02750171  RH  056%=      5-min Rain = 0
KPMS 152335Z 05010KT 28/17 A2983 RMK A01 T02750172  RH  056%=      5-min Rain = 0
KPMS 152340Z 05009KT 27/17 A2983 RMK A01 T02730172  RH  057%=      5-min Rain = 0
KPMS 152345Z 04009KT 27/17 A2983 RMK A01 T02720173  RH  057%=      5-min Rain = 0
KPMS 152350Z 05010KT 27/17 A2984 RMK A01 T02710172  RH  058%=      5-min Rain = 0
KPMS 152355Z 05009KT 27/17 A2984 RMK A01 T02690172  RH  058%=      5-min Rain = 0
KPMS 160000Z 06007KT 27/17 A2985 RMK A01 T02670171  RH  058%=      5-min Rain = 0
KPMS 160005Z 07007KT 27/17 A2985 RMK A01 T02660169  RH  058%=      5-min Rain = 0
KPMS 160010Z 07006KT 26/17 A2986 RMK A01 T02640169  RH  059%=      5-min Rain = 0
KPMS 160015Z 08005KT 26/17 A2986 RMK A01 T02630170  RH  059%=      5-min Rain = 0
KPMS 160020Z 08007KT 26/17 A2986 RMK A01 T02630168  RH  059%=      5-min Rain = 0
KPMS 160025Z 09006KT 26/17 A2986 RMK A01 T02620169  RH  060%=      5-min Rain = 0
KPMS 160030Z 14009KT 26/17 A2987 RMK A01 T02550172  RH  063%=      5-min Rain = 0
KPMS 160035Z 17013G26KT 26/17 A2989 RMK A01 T02550174  RH  064%=      5-min Rain = 0
KPMS 160040Z 19024G44KT 22/12 A299 RMK A01 T02180115  RH  054%=      5-min Rain = 0
KPMS 160045Z 21028G42KT 21/09 A299 RMK A01 T02120094  RH  048%=      5-min Rain = 0
KPMS 160050Z 22028G43KT 21/09 A2989 RMK A01 T02090094  RH  049%=      5-min Rain = 0
KPMS 160055Z 22028G38KT 21/10 A299 RMK A01 T02050097  RH  052%=      5-min Rain = 0
KPMS 160100Z 20025G45KT 20/10 A2991 RMK A01 T01990100  RH  055%=      5-min Rain = 0
KPMS 160105Z 19022G32KT 18/12 A299 RMK A01 T01810118  RH  069%=      5-min Rain = 0
KPMS 160110Z 20026G35KT 17/13 A2988 RMK A01 T01670126  RH  080%=      5-min Rain = 0.03
KPMS 160115Z 21024G36KT 17/13 A2989 RMK A01 T01680126  RH  079%=      5-min Rain = 0.02
KPMS 160120Z 21022G30KT 17/12 A299 RMK A01 T01730124  RH  076%=      5-min Rain = 0.01
KPMS 160125Z 21021G33KT 18/12 A2989 RMK A01 T01770124  RH  074%=      5-min Rain = 0.01
KPMS 160130Z 21024G32KT 18/12 A2988 RMK A01 T01800122  RH  072%=      5-min Rain = 0
KPMS 160135Z 22021G29KT 18/12 A2989 RMK A01 T01820121  RH  070%=      5-min Rain = 0
KPMS 160140Z 21018G23KT 18/12 A2989 RMK A01 T01830120  RH  070%=      5-min Rain = 0
KPMS 160145Z 21015G21KT 18/13 A2989 RMK A01 T01800125  RH  073%=      5-min Rain = 0
KPMS 160150Z 20015KT 18/12 A2989 RMK A01 T01830124  RH  071%=      5-min Rain = 0
KPMS 160155Z 20017G23KT 19/12 A299 RMK A01 T01860124  RH  070%=      5-min Rain = 0
KPMS 160200Z 19019G29KT 19/13 A2991 RMK A01 T01850125  RH  071%=      5-min Rain = 0.01
KPMS 160205Z 18018G34KT 18/13 A2992 RMK A01 T01810127  RH  074%=      5-min Rain = 0
KPMS 160210Z 18018G23KT 19/12 A2992 RMK A01 T01870120  RH  068%=      5-min Rain = 0
KPMS 160215Z 18018KT 19/12 A2992 RMK A01 T01910117  RH  065%=      5-min Rain = 0
KPMS 160220Z 18016G22KT 19/12 A2992 RMK A01 T01870120  RH  068%=      5-min Rain = 0.01
KPMS 160225Z 17014G19KT 18/12 A2992 RMK A01 T01810124  RH  072%=      5-min Rain = 0
KPMS 160230Z 17013G19KT 18/12 A2993 RMK A01 T01830121  RH  070%=      5-min Rain = 0.01
KPMS 160235Z 17013KT 18/12 A2994 RMK A01 T01790124  RH  073%=      5-min Rain = 0.01
KPMS 160240Z 17015G22KT 18/12 A2994 RMK A01 T01830121  RH  070%=      5-min Rain = 0.01
KPMS 160245Z 17014KT 18/13 A2993 RMK A01 T01760128  RH  076%=      5-min Rain = 0.01
KPMS 160250Z 18013G18KT 18/13 A2993 RMK A01 T01790125  RH  074%=      5-min Rain = 0.01
KPMS 160255Z 18014KT 18/13 A2992 RMK A01 T01830125  RH  072%=      5-min Rain = 0
KPMS 160300Z 18013KT 19/12 A2992 RMK A01 T01890121  RH  067%=      5-min Rain = 0.01
KPMS 160305Z 17013G18KT 18/13 A2991 RMK A01 T01840126  RH  072%=      5-min Rain = 0
KPMS 160310Z 17014G19KT 19/12 A2989 RMK A01 T01880122  RH  068%=      5-min Rain = 0
KPMS 160315Z 15011G16KT 19/12 A2988 RMK A01 T01860123  RH  070%=      5-min Rain = 0.01
KPMS 160320Z 11009G17KT 18/13 A2986 RMK A01 T01830127  RH  072%=      5-min Rain = 0
KPMS 160325Z 11011KT 18/13 A2984 RMK A01 T01770131  RH  078%=      5-min Rain = 0
KPMS 160330Z 13011KT 19/12 A2984 RMK A01 T01880121  RH  068%=      5-min Rain = 0
KPMS 160335Z 30015G28KT 19/12 A299 RMK A01 T01920122  RH  066%=      5-min Rain = 0
KPMS 160340Z 31026G38KT 19/12 A2992 RMK A01 T01920116  RH  064%=      5-min Rain = 0
KPMS 160345Z 31030G40KT 18/12 A2992 RMK A01 T01820115  RH  067%=      5-min Rain = 0
KPMS 160350Z 31025G35KT 18/12 A2993 RMK A01 T01750117  RH  071%=      5-min Rain = 0
KPMS 160355Z 31021G30KT 17/12 A2994 RMK A01 T01720116  RH  072%=      5-min Rain = 0
KPMS 160400Z 32023G32KT 17/11 A2994 RMK A01 T01690111  RH  071%=      5-min Rain = 0
KPMS 160405Z 32020G27KT 16/11 A2993 RMK A01 T01640110  RH  073%=      5-min Rain = 0
KPMS 160410Z 32021G29KT 16/11 A2994 RMK A01 T01630110  RH  074%=      5-min Rain = 0
KPMS 160415Z 32022G28KT 16/11 A2994 RMK A01 T01590113  RH  077%=      5-min Rain = 0
KPMS 160420Z 32021G29KT 16/12 A2994 RMK A01 T01560115  RH  079%=      5-min Rain = 0
KPMS 160425Z 31023G31KT 16/12 A2994 RMK A01 T01580115  RH  078%=      5-min Rain = 0
KPMS 160430Z 32022G30KT 16/12 A2993 RMK A01 T01600116  RH  078%=      5-min Rain = 0
KPMS 160435Z 33024G33KT 16/12 A2992 RMK A01 T01620116  RH  077%=      5-min Rain = 0
KPMS 160440Z 32023G32KT 16/12 A2991 RMK A01 T01630117  RH  077%=      5-min Rain = 0
KPMS 160445Z 32022G27KT 17/12 A2992 RMK A01 T01660118  RH  076%=      5-min Rain = 0
KPMS 160450Z 32021G28KT 17/12 A2991 RMK A01 T01680118  RH  075%=      5-min Rain = 0
KPMS 160455Z 32020G27KT 17/12 A2991 RMK A01 T01680119  RH  076%=      5-min Rain = 0

Page generated in 0.028 seconds.